TimeCST,TemperatureF,Dew PointF,Humidity,Sea Level PressureIn,VisibilityMPH,Wind Direction,Wind SpeedMPH,Gust SpeedMPH,PrecipitationIn,Events,Conditions,WindDirDegrees,DateUTC
12:53 AM,48.0,34.0,58,30.40,10.0,NNW,6.9,-,N/A,,Overcast,340,2013-12-12 06:53:00
1:53 AM,45.0,33.1,63,30.41,10.0,NNW,5.8,-,N/A,,Partly Cloudy,340,2013-12-12 07:53:00
2:53 AM,42.1,33.1,70,30.42,10.0,NNW,5.8,-,N/A,,Clear,330,2013-12-12 08:53:00
3:53 AM,39.9,32.0,73,30.44,10.0,NNW,5.8,-,N/A,,Clear,340,2013-12-12 09:53:00
4:53 AM,37.9,30.0,73,30.45,10.0,NNW,4.6,-,N/A,,Clear,340,2013-12-12 10:53:00
5:53 AM,36.0,28.9,76,30.48,10.0,NNW,4.6,-,N/A,,Clear,330,2013-12-12 11:53:00
6:53 AM,35.1,28.9,78,30.50,10.0,NNW,4.6,-,N/A,,Clear,330,2013-12-12 12:53:00
7:53 AM,39.0,28.9,67,30.52,10.0,Variable,5.8,-,N/A,,Clear,0,2013-12-12 13:53:00
8:53 AM,43.0,27.0,53,30.53,10.0,NNE,10.4,-,N/A,,Clear,20,2013-12-12 14:53:00
9:53 AM,46.9,27.0,46,30.52,10.0,North,10.4,-,N/A,,Clear,360,2013-12-12 15:53:00
10:53 AM,50.0,23.0,35,30.51,10.0,NNE,10.4,-,N/A,,Clear,20,2013-12-12 16:53:00
11:53 AM,54.0,19.9,26,30.47,10.0,North,10.4,16.1,N/A,,Clear,360,2013-12-12 17:53:00
12:53 PM,55.9,19.0,24,30.45,10.0,NNW,11.5,-,N/A,,Clear,330,2013-12-12 18:53:00
1:53 PM,55.9,19.9,25,30.42,10.0,NNW,9.2,-,N/A,,Clear,340,2013-12-12 19:53:00
2:53 PM,54.0,18.0,24,30.42,10.0,NNE,10.4,-,N/A,,Clear,20,2013-12-12 20:53:00
3:53 PM,53.1,21.0,29,30.43,10.0,North,8.1,-,N/A,,Clear,360,2013-12-12 21:53:00
4:53 PM,46.9,26.1,44,30.43,10.0,North,5.8,-,N/A,,Clear,350,2013-12-12 22:53:00
5:53 PM,42.1,28.0,58,30.43,10.0,Calm,Calm,-,N/A,,Clear,0,2013-12-12 23:53:00
6:53 PM,37.0,28.9,73,30.42,10.0,North,4.6,-,N/A,,Clear,350,2013-12-13 00:53:00
7:53 PM,34.0,28.0,79,30.43,10.0,NW,3.5,-,N/A,,Clear,310,2013-12-13 01:53:00
8:53 PM,32.0,27.0,82,30.42,10.0,Calm,Calm,-,N/A,,Clear,0,2013-12-13 02:53:00
9:53 PM,30.9,28.0,89,30.43,10.0,WSW,3.5,-,N/A,,Clear,240,2013-12-13 03:53:00
10:53 PM,30.0,26.1,85,30.43,10.0,Calm,Calm,-,N/A,,Clear,0,2013-12-13 04:53:00
11:53 PM,28.9,26.1,89,30.41,10.0,North,3.5,-,N/A,,Clear,350,2013-12-13 05:53:00